West Buechel, Kentucky
Current Conditions -  °F | °C
As of 7:53 PM on Friday 19 Dec 2014 (Local Time) from KLOU Reporting Station
Clear Clear  
Wind Chill: 23°   Ceiling: Unl
Heat Index: 29°   Visibility: 10mi
Dew Point: 21°   Wind: 6mph
Humidity: 72%   Direction: 20°NNE
Pressure: 30.31"   Gusts: NA
Location:  38.1869°N, 85.6523°W
Report Text: KLOU 200053Z 02005KT 10SM CLR M02/M06 A3031 RMK AO2 SLP270 T10171061
Loading
Personal Weather Stations






























Interactive Weather Map New forecast layout! Learn more

10-Day Weather Forecast

Advertisements
Track Severe Weather on mobile